sensor_id;sensor_type;location;lat;lon;timestamp;P1;durP1;ratioP1;P2;durP2;ratioP2
56413;SDS011;42318;48.452;19.526;2022-11-15T00:04:11;3.40;;;2.22;;
56413;SDS011;42318;48.452;19.526;2022-11-15T00:11:42;3.17;;;2.28;;
56413;SDS011;42318;48.452;19.526;2022-11-15T00:19:12;3.80;;;1.85;;
56413;SDS011;42318;48.452;19.526;2022-11-15T00:26:44;3.38;;;2.22;;
56413;SDS011;42318;48.452;19.526;2022-11-15T00:34:15;4.68;;;2.67;;
56413;SDS011;42318;48.452;19.526;2022-11-15T00:41:46;5.13;;;2.20;;
56413;SDS011;42318;48.452;19.526;2022-11-15T00:49:16;4.90;;;2.58;;
56413;SDS011;42318;48.452;19.526;2022-11-15T00:56:47;2.92;;;2.17;;
56413;SDS011;42318;48.452;19.526;2022-11-15T01:04:18;3.75;;;2.30;;
56413;SDS011;42318;48.452;19.526;2022-11-15T01:11:49;5.18;;;2.38;;
56413;SDS011;42318;48.452;19.526;2022-11-15T01:19:19;3.97;;;2.10;;
56413;SDS011;42318;48.452;19.526;2022-11-15T01:26:50;3.50;;;1.90;;
56413;SDS011;42318;48.452;19.526;2022-11-15T01:34:21;3.13;;;2.00;;
56413;SDS011;42318;48.452;19.526;2022-11-15T01:41:52;3.42;;;1.95;;
56413;SDS011;42318;48.452;19.526;2022-11-15T01:49:23;3.17;;;1.98;;
56413;SDS011;42318;48.452;19.526;2022-11-15T01:56:56;2.33;;;1.60;;
56413;SDS011;42318;48.452;19.526;2022-11-15T02:04:41;2.80;;;2.00;;
56413;SDS011;42318;48.452;19.526;2022-11-15T02:12:17;2.95;;;1.88;;
56413;SDS011;42318;48.452;19.526;2022-11-15T02:20:04;3.45;;;2.17;;
56413;SDS011;42318;48.452;19.526;2022-11-15T02:36:00;4.25;;;2.28;;
56413;SDS011;42318;48.452;19.526;2022-11-15T02:43:44;3.20;;;1.95;;
56413;SDS011;42318;48.452;19.526;2022-11-15T02:51:28;3.05;;;2.10;;
56413;SDS011;42318;48.452;19.526;2022-11-15T03:07:10;3.20;;;2.00;;
56413;SDS011;42318;48.452;19.526;2022-11-15T03:22:27;3.15;;;2.00;;
56413;SDS011;42318;48.452;19.526;2022-11-15T03:30:02;2.58;;;1.88;;
56413;SDS011;42318;48.452;19.526;2022-11-15T03:37:37;2.42;;;1.70;;
56413;SDS011;42318;48.452;19.526;2022-11-15T03:45:27;3.70;;;2.20;;
56413;SDS011;42318;48.452;19.526;2022-11-15T03:53:02;3.13;;;1.90;;
56413;SDS011;42318;48.452;19.526;2022-11-15T04:00:33;2.72;;;1.73;;
56413;SDS011;42318;48.452;19.526;2022-11-15T04:08:03;3.03;;;1.90;;
56413;SDS011;42318;48.452;19.526;2022-11-15T04:15:34;3.08;;;1.90;;
56413;SDS011;42318;48.452;19.526;2022-11-15T04:23:06;2.90;;;1.92;;
56413;SDS011;42318;48.452;19.526;2022-11-15T04:30:58;2.50;;;1.40;;
56413;SDS011;42318;48.452;19.526;2022-11-15T04:38:29;3.92;;;2.25;;
56413;SDS011;42318;48.452;19.526;2022-11-15T04:46:00;4.75;;;2.45;;
56413;SDS011;42318;48.452;19.526;2022-11-15T04:53:31;2.70;;;2.00;;
56413;SDS011;42318;48.452;19.526;2022-11-15T05:01:08;4.65;;;2.08;;
56413;SDS011;42318;48.452;19.526;2022-11-15T05:08:40;5.93;;;2.45;;
56413;SDS011;42318;48.452;19.526;2022-11-15T05:16:11;3.63;;;2.10;;
56413;SDS011;42318;48.452;19.526;2022-11-15T05:23:41;3.85;;;2.25;;
56413;SDS011;42318;48.452;19.526;2022-11-15T05:31:13;3.78;;;2.22;;
56413;SDS011;42318;48.452;19.526;2022-11-15T05:38:46;4.43;;;2.10;;
56413;SDS011;42318;48.452;19.526;2022-11-15T05:46:18;2.83;;;1.92;;
56413;SDS011;42318;48.452;19.526;2022-11-15T05:53:49;4.45;;;2.38;;
56413;SDS011;42318;48.452;19.526;2022-11-15T06:01:22;3.70;;;2.42;;
56413;SDS011;42318;48.452;19.526;2022-11-15T06:08:55;4.55;;;2.20;;
56413;SDS011;42318;48.452;19.526;2022-11-15T06:16:26;3.35;;;1.98;;
56413;SDS011;42318;48.452;19.526;2022-11-15T06:23:56;3.55;;;2.10;;
56413;SDS011;42318;48.452;19.526;2022-11-15T06:31:27;5.47;;;3.17;;
56413;SDS011;42318;48.452;19.526;2022-11-15T06:38:58;4.07;;;2.72;;
56413;SDS011;42318;48.452;19.526;2022-11-15T06:46:31;5.13;;;3.35;;
56413;SDS011;42318;48.452;19.526;2022-11-15T06:54:02;5.85;;;3.22;;
56413;SDS011;42318;48.452;19.526;2022-11-15T07:01:33;6.60;;;3.40;;
56413;SDS011;42318;48.452;19.526;2022-11-15T07:09:03;7.68;;;3.65;;
56413;SDS011;42318;48.452;19.526;2022-11-15T07:16:35;7.00;;;3.72;;
56413;SDS011;42318;48.452;19.526;2022-11-15T07:24:06;8.00;;;4.30;;
56413;SDS011;42318;48.452;19.526;2022-11-15T07:31:37;7.80;;;4.40;;
56413;SDS011;42318;48.452;19.526;2022-11-15T07:39:09;5.03;;;3.28;;
56413;SDS011;42318;48.452;19.526;2022-11-15T07:46:40;5.22;;;3.55;;
56413;SDS011;42318;48.452;19.526;2022-11-15T07:54:11;6.47;;;3.40;;
56413;SDS011;42318;48.452;19.526;2022-11-15T08:01:41;6.00;;;3.65;;
56413;SDS011;42318;48.452;19.526;2022-11-15T08:09:12;6.63;;;4.13;;
56413;SDS011;42318;48.452;19.526;2022-11-15T08:16:43;6.22;;;3.42;;
56413;SDS011;42318;48.452;19.526;2022-11-15T08:24:14;6.75;;;4.22;;
56413;SDS011;42318;48.452;19.526;2022-11-15T08:31:45;6.07;;;3.63;;
56413;SDS011;42318;48.452;19.526;2022-11-15T08:39:16;6.85;;;4.20;;
56413;SDS011;42318;48.452;19.526;2022-11-15T08:46:46;6.95;;;3.95;;
56413;SDS011;42318;48.452;19.526;2022-11-15T08:54:17;7.57;;;3.80;;
56413;SDS011;42318;48.452;19.526;2022-11-15T09:01:48;6.90;;;4.60;;
56413;SDS011;42318;48.452;19.526;2022-11-15T09:09:19;12.80;;;3.78;;
56413;SDS011;42318;48.452;19.526;2022-11-15T09:16:50;9.73;;;4.00;;
56413;SDS011;42318;48.452;19.526;2022-11-15T09:24:20;9.20;;;4.00;;
56413;SDS011;42318;48.452;19.526;2022-11-15T09:31:51;11.15;;;4.65;;
56413;SDS011;42318;48.452;19.526;2022-11-15T09:39:23;10.20;;;4.43;;
56413;SDS011;42318;48.452;19.526;2022-11-15T09:55:02;6.72;;;4.03;;
56413;SDS011;42318;48.452;19.526;2022-11-15T10:10:30;12.15;;;3.97;;
56413;SDS011;42318;48.452;19.526;2022-11-15T10:18:44;7.75;;;4.00;;
56413;SDS011;42318;48.452;19.526;2022-11-15T10:26:18;13.98;;;4.00;;
56413;SDS011;42318;48.452;19.526;2022-11-15T10:33:48;12.98;;;4.18;;
56413;SDS011;42318;48.452;19.526;2022-11-15T10:49:18;8.80;;;4.28;;
56413;SDS011;42318;48.452;19.526;2022-11-15T10:56:53;9.52;;;3.90;;
56413;SDS011;42318;48.452;19.526;2022-11-15T11:04:26;6.65;;;3.83;;
56413;SDS011;42318;48.452;19.526;2022-11-15T11:11:57;6.65;;;3.65;;
56413;SDS011;42318;48.452;19.526;2022-11-15T11:42:35;10.82;;;3.97;;
56413;SDS011;42318;48.452;19.526;2022-11-15T11:50:11;10.35;;;4.38;;
56413;SDS011;42318;48.452;19.526;2022-11-15T11:57:52;8.95;;;4.22;;
56413;SDS011;42318;48.452;19.526;2022-11-15T12:05:30;7.22;;;4.32;;
56413;SDS011;42318;48.452;19.526;2022-11-15T12:13:09;8.23;;;4.47;;
56413;SDS011;42318;48.452;19.526;2022-11-15T12:20:53;8.98;;;4.53;;
56413;SDS011;42318;48.452;19.526;2022-11-15T12:28:42;10.85;;;4.78;;
56413;SDS011;42318;48.452;19.526;2022-11-15T12:43:50;7.35;;;4.25;;
56413;SDS011;42318;48.452;19.526;2022-11-15T12:52:08;12.45;;;4.13;;
56413;SDS011;42318;48.452;19.526;2022-11-15T12:59:38;12.02;;;4.60;;
56413;SDS011;42318;48.452;19.526;2022-11-15T13:30:30;9.73;;;5.43;;
56413;SDS011;42318;48.452;19.526;2022-11-15T13:38:03;10.20;;;5.30;;
56413;SDS011;42318;48.452;19.526;2022-11-15T13:45:35;8.55;;;5.10;;
56413;SDS011;42318;48.452;19.526;2022-11-15T13:53:06;9.32;;;4.90;;
56413;SDS011;42318;48.452;19.526;2022-11-15T14:00:41;8.77;;;4.40;;
56413;SDS011;42318;48.452;19.526;2022-11-15T14:08:23;6.88;;;4.47;;
56413;SDS011;42318;48.452;19.526;2022-11-15T14:15:54;9.32;;;4.57;;
56413;SDS011;42318;48.452;19.526;2022-11-15T14:23:42;8.43;;;4.75;;
56413;SDS011;42318;48.452;19.526;2022-11-15T14:31:13;8.77;;;4.88;;
56413;SDS011;42318;48.452;19.526;2022-11-15T14:38:44;6.80;;;4.30;;
56413;SDS011;42318;48.452;19.526;2022-11-15T14:46:15;5.35;;;3.78;;
56413;SDS011;42318;48.452;19.526;2022-11-15T14:53:47;8.27;;;4.75;;
56413;SDS011;42318;48.452;19.526;2022-11-15T15:01:23;9.30;;;4.45;;
56413;SDS011;42318;48.452;19.526;2022-11-15T15:08:55;9.25;;;4.72;;
56413;SDS011;42318;48.452;19.526;2022-11-15T15:16:26;8.75;;;4.78;;
56413;SDS011;42318;48.452;19.526;2022-11-15T15:23:57;8.60;;;4.60;;
56413;SDS011;42318;48.452;19.526;2022-11-15T15:31:28;8.48;;;4.72;;
56413;SDS011;42318;48.452;19.526;2022-11-15T15:38:59;8.38;;;4.93;;
56413;SDS011;42318;48.452;19.526;2022-11-15T15:46:29;6.57;;;4.10;;
56413;SDS011;42318;48.452;19.526;2022-11-15T15:54:00;7.30;;;4.30;;
56413;SDS011;42318;48.452;19.526;2022-11-15T16:01:31;7.15;;;4.70;;
56413;SDS011;42318;48.452;19.526;2022-11-15T16:09:02;8.85;;;4.78;;
56413;SDS011;42318;48.452;19.526;2022-11-15T16:16:33;8.32;;;5.10;;
56413;SDS011;42318;48.452;19.526;2022-11-15T16:24:05;10.40;;;5.13;;
56413;SDS011;42318;48.452;19.526;2022-11-15T16:31:36;7.00;;;3.97;;
56413;SDS011;42318;48.452;19.526;2022-11-15T16:39:09;8.93;;;5.40;;
56413;SDS011;42318;48.452;19.526;2022-11-15T16:46:43;9.23;;;5.60;;
56413;SDS011;42318;48.452;19.526;2022-11-15T16:54:18;7.75;;;4.45;;
56413;SDS011;42318;48.452;19.526;2022-11-15T17:01:49;7.70;;;4.78;;
56413;SDS011;42318;48.452;19.526;2022-11-15T17:09:20;7.93;;;5.43;;
56413;SDS011;42318;48.452;19.526;2022-11-15T17:16:55;8.38;;;5.20;;
56413;SDS011;42318;48.452;19.526;2022-11-15T17:24:27;9.13;;;4.80;;
56413;SDS011;42318;48.452;19.526;2022-11-15T17:31:58;8.80;;;4.53;;
56413;SDS011;42318;48.452;19.526;2022-11-15T17:39:28;8.35;;;4.65;;
56413;SDS011;42318;48.452;19.526;2022-11-15T17:46:59;7.43;;;4.10;;
56413;SDS011;42318;48.452;19.526;2022-11-15T17:54:30;7.93;;;4.50;;
56413;SDS011;42318;48.452;19.526;2022-11-15T18:02:01;7.93;;;4.68;;
56413;SDS011;42318;48.452;19.526;2022-11-15T18:09:32;6.40;;;4.30;;
56413;SDS011;42318;48.452;19.526;2022-11-15T18:17:02;7.10;;;4.63;;
56413;SDS011;42318;48.452;19.526;2022-11-15T18:24:34;8.93;;;4.35;;
56413;SDS011;42318;48.452;19.526;2022-11-15T18:32:07;6.70;;;4.53;;
56413;SDS011;42318;48.452;19.526;2022-11-15T18:39:41;8.35;;;3.92;;
56413;SDS011;42318;48.452;19.526;2022-11-15T18:47:12;7.68;;;4.90;;
56413;SDS011;42318;48.452;19.526;2022-11-15T18:54:43;6.68;;;4.55;;
56413;SDS011;42318;48.452;19.526;2022-11-15T19:02:14;7.45;;;4.57;;
56413;SDS011;42318;48.452;19.526;2022-11-15T19:09:45;8.38;;;4.85;;
56413;SDS011;42318;48.452;19.526;2022-11-15T19:17:16;6.38;;;5.07;;
56413;SDS011;42318;48.452;19.526;2022-11-15T19:24:46;6.78;;;4.50;;
56413;SDS011;42318;48.452;19.526;2022-11-15T19:32:17;7.50;;;4.05;;
56413;SDS011;42318;48.452;19.526;2022-11-15T19:39:48;8.13;;;4.82;;
56413;SDS011;42318;48.452;19.526;2022-11-15T19:47:19;5.88;;;4.05;;
56413;SDS011;42318;48.452;19.526;2022-11-15T19:54:49;7.93;;;4.45;;
56413;SDS011;42318;48.452;19.526;2022-11-15T20:02:20;6.63;;;4.50;;
56413;SDS011;42318;48.452;19.526;2022-11-15T20:09:51;7.57;;;4.65;;
56413;SDS011;42318;48.452;19.526;2022-11-15T20:17:23;9.73;;;4.73;;
56413;SDS011;42318;48.452;19.526;2022-11-15T20:24:54;7.78;;;5.05;;
56413;SDS011;42318;48.452;19.526;2022-11-15T20:32:25;7.53;;;4.63;;
56413;SDS011;42318;48.452;19.526;2022-11-15T20:39:57;8.82;;;5.15;;
56413;SDS011;42318;48.452;19.526;2022-11-15T20:47:29;6.43;;;4.53;;
56413;SDS011;42318;48.452;19.526;2022-11-15T20:55:00;10.65;;;4.88;;
56413;SDS011;42318;48.452;19.526;2022-11-15T21:02:31;7.05;;;4.55;;
56413;SDS011;42318;48.452;19.526;2022-11-15T21:10:02;7.10;;;4.85;;
56413;SDS011;42318;48.452;19.526;2022-11-15T21:17:52;6.82;;;4.25;;
56413;SDS011;42318;48.452;19.526;2022-11-15T21:25:22;7.75;;;4.80;;
56413;SDS011;42318;48.452;19.526;2022-11-15T21:32:53;6.65;;;3.92;;
56413;SDS011;42318;48.452;19.526;2022-11-15T21:40:24;8.15;;;4.55;;
56413;SDS011;42318;48.452;19.526;2022-11-15T21:47:55;7.28;;;4.63;;
56413;SDS011;42318;48.452;19.526;2022-11-15T21:55:26;9.23;;;5.63;;
56413;SDS011;42318;48.452;19.526;2022-11-15T22:02:57;7.97;;;5.30;;
56413;SDS011;42318;48.452;19.526;2022-11-15T22:10:28;8.27;;;5.93;;
56413;SDS011;42318;48.452;19.526;2022-11-15T22:17:58;8.07;;;5.13;;
56413;SDS011;42318;48.452;19.526;2022-11-15T22:25:29;7.22;;;4.80;;
56413;SDS011;42318;48.452;19.526;2022-11-15T22:33:00;8.00;;;5.50;;
56413;SDS011;42318;48.452;19.526;2022-11-15T22:40:31;9.63;;;5.43;;
56413;SDS011;42318;48.452;19.526;2022-11-15T22:48:02;8.48;;;4.72;;
56413;SDS011;42318;48.452;19.526;2022-11-15T22:55:33;7.03;;;4.47;;
56413;SDS011;42318;48.452;19.526;2022-11-15T23:03:03;7.85;;;4.68;;
56413;SDS011;42318;48.452;19.526;2022-11-15T23:10:35;8.52;;;4.93;;
56413;SDS011;42318;48.452;19.526;2022-11-15T23:18:26;7.55;;;4.32;;
56413;SDS011;42318;48.452;19.526;2022-11-15T23:25:58;6.17;;;4.37;;
56413;SDS011;42318;48.452;19.526;2022-11-15T23:33:29;5.18;;;3.88;;
56413;SDS011;42318;48.452;19.526;2022-11-15T23:41:18;7.60;;;4.20;;
56413;SDS011;42318;48.452;19.526;2022-11-15T23:48:50;6.45;;;4.30;;
56413;SDS011;42318;48.452;19.526;2022-11-15T23:56:20;6.88;;;4.22;;
